Terminal Aerodrome Forecast
Issued by NWS

Home | Current Version | Previous Version | Text Only | Print | Product List | Glossary On
Versions: 1 2 3 4 5 6 7 8 9 10 11 12 13 14 15 16 17 18 19 20 21 22 23 24 25 26 27
000
FTUS46 KOTX 242337
TAFSFF
TAF
KSFF 242337Z 2500/2524 29007KT P6SM VCSH BKN015 OVC100
     FM250400 30003KT P6SM SCT010 BKN030 BKN110
     FM250900 24002KT 5SM BR OVC015=

USA.gov is the U.S. government's official web portal to all federal, state and local government web resources and services.